RV Helmer Hanssen — LAHV — position and weather

sailwx.info

Track history (hours):
 
Tides and Currents Weather Stations Pressure Air Temp Water Temp Dewpoint Dewpoint Depression Visibility Wind Speed Wind Dir Waves Ship Positions

Oceanographic research ship RV Helmer Hanssen (Norway)

ex Jan Mayen.

Ship's website: http://uit.no/bfe

Detailed information on ship capabilities available from University of Delaware's Ocean Information Center and ARCUS's ALIAS (Arctic Logistics Information and Support) project.

Last reported at 2020-Jan-22 19:01 UTC. Time now 2020-Jan-25 05:13 UTC.
Position N 70°55' E 021°07'.

Length 64 m; beam 13 m.

Type: Other ship. MMSI: 257471500.

Date/timePositionNaut miles runAvg speedWind from/ knotsBaromVisibWave heightAir tempDewpointWater temp
2020-Jan-22 19:01N 70°55' E 021°07'1 0.2
2020-Jan-22 15:00N 70°54' E 021°08'2 1.2
2020-Jan-22 13:00N 70°57' E 021°05'1 0.6
2020-Jan-22 11:00N 70°56' E 021°02'5 2.7
2020-Jan-22 09:00N 70°51' E 021°02'2 3.3
2020-Jan-22 08:30N 70°49' E 021°02'30 6.8
2020-Jan-22 04:00N 70°21' E 020°31'4 8.8
2020-Jan-22 03:30N 70°17' E 020°26'34 9.7
2020-Jan-22 00:00N 69°49' E 019°28'14 4.0
2020-Jan-21 20:30N 69°39' E 018°58'0 0.0
2020-Jan-21 13:00N 69°39' E 018°58'0 0.0
2020-Jan-21 11:30N 69°39' E 018°58'0 0.0
2020-Jan-21 10:30N 69°39' E 018°58'0 0.0
2020-Jan-21 07:30N 69°39' E 018°58'0 0.0
2020-Jan-21 07:00N 69°39' E 018°58'0 0.0
2020-Jan-21 04:00N 69°39' E 018°58'0 0.0
2020-Jan-21 03:30N 69°39' E 018°58'0 0.0
2020-Jan-21 03:00N 69°39' E 018°58'0 0.0
2020-Jan-21 01:29N 69°39' E 018°58'0 0.0
2020-Jan-21 00:59N 69°39' E 018°58'0 0.0
2020-Jan-20 20:59N 69°39' E 018°58'0 0.0
2020-Jan-20 18:29N 69°39' E 018°58'0 0.0
2020-Jan-20 16:59N 69°39' E 018°58'0 0.0
2020-Jan-20 15:00N 69°39' E 018°58'5 3.3
2020-Jan-20 13:29N 69°35' E 018°55'12 8.1
2020-Jan-20 12:00N 69°23' E 019°04'8 8.3
2020-Jan-20 10:59N 69°18' E 019°23'2 1.1
2020-Jan-20 09:30N 69°20' E 019°22'5 9.7
2020-Jan-20 09:00N 69°22' E 019°10'1 0.3
2020-Jan-20 07:00N 69°22' E 019°11'0 0.3
2020-Jan-20 06:00N 69°21' E 019°12'1 1.3
2020-Jan-20 05:30N 69°21' E 019°10'0 0.5
2020-Jan-20 05:00N 69°21' E 019°11'1 0.4
2020-Jan-20 03:30N 69°22' E 019°12'0 0.4
2020-Jan-20 02:30N 69°22' E 019°13'4 3.6
2020-Jan-20 01:30N 69°23' E 019°04'2 4.0
2020-Jan-20 01:00N 69°24' E 019°02'5 3.6
2020-Jan-19 23:30N 69°30' E 018°56'10 3.9
2020-Jan-19 21:00N 69°39' E 018°58'17 8.5
2020-Jan-19 19:00N 69°31' E 018°17'510.1
2020-Jan-19 18:31N 69°32' E 018°03'5 2.5
2020-Jan-19 16:30N 69°36' E 017°53'14 4.0
2020-Jan-19 12:59N 69°27' E 018°25'3 1.5
2020-Jan-19 11:00N 69°24' E 018°27'2 3.4
2020-Jan-19 10:30N 69°23' E 018°31'1 1.1
2020-Jan-19 09:59N 69°23' E 018°29'8 5.7
2020-Jan-19 08:30N 69°32' E 018°30'13 0.3
2020-Jan-17 19:59N 69°39' E 018°58'0 0.0
2020-Jan-17 18:29N 69°39' E 018°58'0 0.0
2020-Jan-17 17:29N 69°39' E 018°58'0 0.0
2020-Jan-17 16:29N 69°39' E 018°58'0 0.0
2020-Jan-17 14:59N 69°39' E 018°58'0 0.0
2020-Jan-17 11:29N 69°39' E 018°58'0 0.0
2020-Jan-17 08:29N 69°39' E 018°58'0 0.0
2020-Jan-17 06:59N 69°39' E 018°58'3 1.7
2020-Jan-17 05:00N 69°42' E 019°03'4 7.4
2020-Jan-17 04:30N 69°46' E 019°07'5 9.2
2020-Jan-17 04:00N 69°48' E 019°19'14 9.2
2020-Jan-17 02:30N 69°59' E 019°42'19 9.3
2020-Jan-17 00:30N 70°17' E 019°26'22910.0
2020-Jan-16 01:30N 74°04' E 017°32'2110.8
2020-Jan-15 23:30N 74°25' E 017°21'1110.8
2020-Jan-15 22:30N 74°36' E 017°16'9 3.6
2020-Jan-15 19:59N 74°45' E 017°15'0 0.7
2020-Jan-15 19:30N 74°45' E 017°16'1 0.6
2020-Jan-15 18:00N 74°46' E 017°18'1 0.2
2020-Jan-15 14:00N 74°46' E 017°18'5 3.3
2020-Jan-15 12:29N 74°49' E 017°03'179 9.9
2020-Jan-14 18:21N 77°18' E 010°13'411.0
2020-Jan-14 18:00N 77°22' E 010°07'1 1.9
2020-Jan-14 17:29N 77°23' E 010°05'0 0.5
2020-Jan-14 17:00N 77°23' E 010°06'1 0.5
2020-Jan-14 15:01N 77°24' E 010°06'0 0.3
2020-Jan-14 14:30N 77°24' E 010°06'0 0.3
2020-Jan-14 13:30N 77°25' E 010°05'1 0.4
2020-Jan-14 12:00N 77°24' E 010°06'183.5 010 / 171001.2 1.1 -9.0-12.9 4.1
2020-Jan-14 11:59N 77°25' E 010°06'0 0.2
2020-Jan-14 11:30N 77°25' E 010°06'1 1.9
2020-Jan-14 11:00N 77°24' E 010°06'1430.4 010 / 161001.2 -9.3 4.1
2020-Jan-14 10:59N 77°25' E 010°06'0 0.2
2020-Jan-14 10:00N 77°25' E 010°06'1484.9
2020-Jan-14 10:00N 77°24' E 010°06'0 0.0 010 / 141001.3 -9.3 4.0
2020-Jan-14 09:00N 77°24' E 010°06'0 0.0 010 / 161001.4 0.5 -9.6 4.0
2020-Jan-14 08:00N 77°24' E 010°06'1 1.9 020 / 151001.6 -9.5 3.9
2020-Jan-14 07:30N 77°25' E 010°07'1 1.8
2020-Jan-14 07:00N 77°24' E 010°06'1 1.0 030 / 161001.3 -9.7 3.9
2020-Jan-14 06:00N 77°25' E 010°08'1180.3
2020-Jan-14 06:00N 77°24' E 010°06'1 2.0 020 / 161001.510.8 -9.8-14.1 3.9
2020-Jan-14 05:30N 77°25' E 010°08'1 1.9
2020-Jan-14 05:00N 77°24' E 010°06'6 6.0 010 / 141001.2 -9.5 3.7
2020-Jan-14 04:00N 77°30' E 010°06'1212.0 020 / 151001.7 -9.7 3.3
2020-Jan-14 03:00N 77°42' E 010°06'6 6.0 010 / 171002.1 -10.2 2.3
2020-Jan-14 02:00N 77°48' E 010°06'1212.0 360 / 171002.4 -10.3 1.0
2020-Jan-14 01:00N 77°60' E 010°09'179.2
2020-Jan-14 01:00N 78°00' E 010°12'1212.0 360 / 151002.6 -10.8 1.1
2020-Jan-14 00:00N 78°12' E 010°12'1212.0 360 / 161002.7 2.2 -11.5-18.1-1.2
2020-Jan-13 23:00N 78°24' E 010°12'6 6.0 1002.9 -11.5 -0.9
2020-Jan-13 22:00N 78°30' E 010°12'1212.0 010 / 171003.0 -12.2 -1.6
2020-Jan-13 21:00N 78°42' E 010°12'715.3 020 / 181002.8 2.2 -12.5 -1.8
2020-Jan-13 20:30N 78°49' E 010°11'510.3
2020-Jan-13 20:00N 78°54' E 010°24'1010.0 020 / 151002.9 -12.5 -1.8
2020-Jan-13 19:00N 79°00' E 011°06'4 3.6 1002.7 -13.2 -1.6
2020-Jan-13 18:00N 79°00' E 011°25'031.7
2020-Jan-13 18:00N 79°00' E 011°24'1 0.7 360 / 141002.7 -13.5-20.9-1.4
2020-Jan-13 17:00N 79°01' E 011°25'152.6
2020-Jan-13 17:00N 79°00' E 011°24'8 8.3 020 / 101002.6 -13.5 -1.7
2020-Jan-13 16:00N 78°54' E 011°54'6 6.1 170 / 41002.8 -16.5 -1.3
2020-Jan-13 15:00N 79°00' E 011°48'0 0.0 160 / 51002.7 -15.2 -1.6
2020-Jan-13 14:00N 79°00' E 011°48'0 0.0 190 / 71002.7 -15.7 -1.6
2020-Jan-13 13:00N 79°00' E 011°48'3 3.0 180 / 41002.7 -15.5 -1.6
2020-Jan-13 12:00N 78°57' E 011°56'3353.8
2020-Jan-13 12:00N 79°00' E 011°54'3 2.6 130 / 81002.6 5.4 -15.3 -1.3
2020-Jan-13 11:00N 78°57' E 011°57'31585.6
2020-Jan-13 11:00N 79°00' E 011°54'1 1.1 110 / 71002.2 -15.3 -1.1
2020-Jan-13 10:00N 79°00' E 012°00'0 0.0 120 / 71002.1 -15.0 -1.2
2020-Jan-13 09:00N 79°00' E 012°00'4 4.1 200 / 11002.0 5.4 -15.3 -1.4
2020-Jan-13 08:00N 78°56' E 011°56'2159.8
2020-Jan-13 08:00N 78°54' E 011°54'5 4.6 170 / 81001.8 -15.3 -1.3
2020-Jan-13 07:00N 78°54' E 012°18'1 1.6 140 / 101001.8 -15.6 -1.5
2020-Jan-13 06:30N 78°54' E 012°22'0 0.7
2020-Jan-13 06:00N 78°54' E 012°24'0 0.3 120 / 101001.410.8 -16.1 -1.4
2020-Jan-13 05:00N 78°54' E 012°22'056.1
2020-Jan-13 05:00N 78°54' E 012°24'0 0.7 150 / 131001.1 -16.1 -1.4
2020-Jan-13 04:30N 78°54' E 012°22'0 0.3
2020-Jan-13 04:00N 78°54' E 012°22'0428.8
2020-Jan-13 04:00N 78°54' E 012°24'5 9.6 160 / 171001.0 -15.7 -1.2
2020-Jan-13 03:30N 78°56' E 012°03'4 8.0
2020-Jan-13 03:00N 79°00' E 011°54'3 2.9 110 / 111001.2 -15.3 -1.4
2020-Jan-13 02:01N 78°57' E 011°58'3165.0
2020-Jan-13 02:00N 79°00' E 012°00'3 5.8 120 / 111000.9 -14.7 -1.2
2020-Jan-13 01:30N 78°57' E 011°56'3 5.6
2020-Jan-13 01:00N 79°00' E 012°00'3 5.8 120 / 141000.5 -15.2 -1.2
2020-Jan-13 00:30N 78°57' E 011°55'3 5.4
2020-Jan-13 00:00N 79°00' E 011°54'0 0.0 120 / 121000.5 -15.2 -1.5
2020-Jan-12 23:00N 79°00' E 011°54'2 2.3 120 / 131000.6 -15.0 -1.4
2020-Jan-12 22:00N 79°00' E 011°42'0 0.0 140 / 111000.4 -13.8 -1.5
2020-Jan-12 21:00N 79°00' E 011°42'1 1.9 140 / 121000.410.8 -14.0 -1.6
2020-Jan-12 20:30N 78°59' E 011°43'1 1.8
2020-Jan-12 20:00N 79°00' E 011°42'   150 / 121000.3 -14.0 -1.4
Track history (hours):
 
Tides and Currents Weather Stations Pressure Air Temp Water Temp Dewpoint Dewpoint Depression Visibility Wind Speed Wind Dir Waves Ship Positions

Oceanographic research ship RV Helmer Hanssen (Norway)

ex Jan Mayen.

Ship's website: http://uit.no/bfe

Detailed information on ship capabilities available from University of Delaware's Ocean Information Center and ARCUS's ALIAS (Arctic Logistics Information and Support) project.

Last reported at 2020-Jan-22 19:01 UTC. Time now 2020-Jan-25 05:13 UTC.
Position N 70°55' E 021°07'.

Length 64 m; beam 13 m.

Type: Other ship. MMSI: 257471500.

Date/timePositionNaut miles runAvg speedWind from/ knotsBaromVisibWave heightAir tempDewpointWater temp
2020-Jan-22 19:01N 70°55' E 021°07'1 0.2
2020-Jan-22 15:00N 70°54' E 021°08'2 1.2
2020-Jan-22 13:00N 70°57' E 021°05'1 0.6
2020-Jan-22 11:00N 70°56' E 021°02'5 2.7
2020-Jan-22 09:00N 70°51' E 021°02'2 3.3
2020-Jan-22 08:30N 70°49' E 021°02'30 6.8
2020-Jan-22 04:00N 70°21' E 020°31'4 8.8
2020-Jan-22 03:30N 70°17' E 020°26'34 9.7
2020-Jan-22 00:00N 69°49' E 019°28'14 4.0
2020-Jan-21 20:30N 69°39' E 018°58'0 0.0
2020-Jan-21 13:00N 69°39' E 018°58'0 0.0
2020-Jan-21 11:30N 69°39' E 018°58'0 0.0
2020-Jan-21 10:30N 69°39' E 018°58'0 0.0
2020-Jan-21 07:30N 69°39' E 018°58'0 0.0
2020-Jan-21 07:00N 69°39' E 018°58'0 0.0
2020-Jan-21 04:00N 69°39' E 018°58'0 0.0
2020-Jan-21 03:30N 69°39' E 018°58'0 0.0
2020-Jan-21 03:00N 69°39' E 018°58'0 0.0
2020-Jan-21 01:29N 69°39' E 018°58'0 0.0
2020-Jan-21 00:59N 69°39' E 018°58'0 0.0
2020-Jan-20 20:59N 69°39' E 018°58'0 0.0
2020-Jan-20 18:29N 69°39' E 018°58'0 0.0
2020-Jan-20 16:59N 69°39' E 018°58'0 0.0
2020-Jan-20 15:00N 69°39' E 018°58'5 3.3
2020-Jan-20 13:29N 69°35' E 018°55'12 8.1
2020-Jan-20 12:00N 69°23' E 019°04'8 8.3
2020-Jan-20 10:59N 69°18' E 019°23'2 1.1
2020-Jan-20 09:30N 69°20' E 019°22'5 9.7
2020-Jan-20 09:00N 69°22' E 019°10'1 0.3
2020-Jan-20 07:00N 69°22' E 019°11'0 0.3
2020-Jan-20 06:00N 69°21' E 019°12'1 1.3
2020-Jan-20 05:30N 69°21' E 019°10'0 0.5
2020-Jan-20 05:00N 69°21' E 019°11'1 0.4
2020-Jan-20 03:30N 69°22' E 019°12'0 0.4
2020-Jan-20 02:30N 69°22' E 019°13'4 3.6
2020-Jan-20 01:30N 69°23' E 019°04'2 4.0
2020-Jan-20 01:00N 69°24' E 019°02'5 3.6
2020-Jan-19 23:30N 69°30' E 018°56'10 3.9
2020-Jan-19 21:00N 69°39' E 018°58'17 8.5
2020-Jan-19 19:00N 69°31' E 018°17'510.1
2020-Jan-19 18:31N 69°32' E 018°03'5 2.5
2020-Jan-19 16:30N 69°36' E 017°53'14 4.0
2020-Jan-19 12:59N 69°27' E 018°25'3 1.5
2020-Jan-19 11:00N 69°24' E 018°27'2 3.4
2020-Jan-19 10:30N 69°23' E 018°31'1 1.1
2020-Jan-19 09:59N 69°23' E 018°29'8 5.7
2020-Jan-19 08:30N 69°32' E 018°30'13 0.3
2020-Jan-17 19:59N 69°39' E 018°58'0 0.0
2020-Jan-17 18:29N 69°39' E 018°58'0 0.0
2020-Jan-17 17:29N 69°39' E 018°58'0 0.0
2020-Jan-17 16:29N 69°39' E 018°58'0 0.0
2020-Jan-17 14:59N 69°39' E 018°58'0 0.0
2020-Jan-17 11:29N 69°39' E 018°58'0 0.0
2020-Jan-17 08:29N 69°39' E 018°58'0 0.0
2020-Jan-17 06:59N 69°39' E 018°58'3 1.7
2020-Jan-17 05:00N 69°42' E 019°03'4 7.4
2020-Jan-17 04:30N 69°46' E 019°07'5 9.2
2020-Jan-17 04:00N 69°48' E 019°19'14 9.2
2020-Jan-17 02:30N 69°59' E 019°42'19 9.3
2020-Jan-17 00:30N 70°17' E 019°26'22910.0
2020-Jan-16 01:30N 74°04' E 017°32'2110.8
2020-Jan-15 23:30N 74°25' E 017°21'1110.8
2020-Jan-15 22:30N 74°36' E 017°16'9 3.6
2020-Jan-15 19:59N 74°45' E 017°15'0 0.7
2020-Jan-15 19:30N 74°45' E 017°16'1 0.6
2020-Jan-15 18:00N 74°46' E 017°18'1 0.2
2020-Jan-15 14:00N 74°46' E 017°18'5 3.3
2020-Jan-15 12:29N 74°49' E 017°03'179 9.9
2020-Jan-14 18:21N 77°18' E 010°13'411.0
2020-Jan-14 18:00N 77°22' E 010°07'1 1.9
2020-Jan-14 17:29N 77°23' E 010°05'0 0.5
2020-Jan-14 17:00N 77°23' E 010°06'1 0.5
2020-Jan-14 15:01N 77°24' E 010°06'0 0.3
2020-Jan-14 14:30N 77°24' E 010°06'0 0.3
2020-Jan-14 13:30N 77°25' E 010°05'1 0.4
2020-Jan-14 12:00N 77°24' E 010°06'183.5 010 / 171001.2 1.1 -9.0-12.9 4.1
2020-Jan-14 11:59N 77°25' E 010°06'0 0.2
2020-Jan-14 11:30N 77°25' E 010°06'1 1.9
2020-Jan-14 11:00N 77°24' E 010°06'1430.4 010 / 161001.2 -9.3 4.1
2020-Jan-14 10:59N 77°25' E 010°06'0 0.2
2020-Jan-14 10:00N 77°25' E 010°06'1484.9
2020-Jan-14 10:00N 77°24' E 010°06'0 0.0 010 / 141001.3 -9.3 4.0
2020-Jan-14 09:00N 77°24' E 010°06'0 0.0 010 / 161001.4 0.5 -9.6 4.0
2020-Jan-14 08:00N 77°24' E 010°06'1 1.9 020 / 151001.6 -9.5 3.9
2020-Jan-14 07:30N 77°25' E 010°07'1 1.8
2020-Jan-14 07:00N 77°24' E 010°06'1 1.0 030 / 161001.3 -9.7 3.9
2020-Jan-14 06:00N 77°25' E 010°08'1180.3
2020-Jan-14 06:00N 77°24' E 010°06'1 2.0 020 / 161001.510.8 -9.8-14.1 3.9
2020-Jan-14 05:30N 77°25' E 010°08'1 1.9
2020-Jan-14 05:00N 77°24' E 010°06'6 6.0 010 / 141001.2 -9.5 3.7
2020-Jan-14 04:00N 77°30' E 010°06'1212.0 020 / 151001.7 -9.7 3.3
2020-Jan-14 03:00N 77°42' E 010°06'6 6.0 010 / 171002.1 -10.2 2.3
2020-Jan-14 02:00N 77°48' E 010°06'1212.0 360 / 171002.4 -10.3 1.0
2020-Jan-14 01:00N 77°60' E 010°09'179.2
2020-Jan-14 01:00N 78°00' E 010°12'1212.0 360 / 151002.6 -10.8 1.1
2020-Jan-14 00:00N 78°12' E 010°12'1212.0 360 / 161002.7 2.2 -11.5-18.1-1.2
2020-Jan-13 23:00N 78°24' E 010°12'6 6.0 1002.9 -11.5 -0.9
2020-Jan-13 22:00N 78°30' E 010°12'1212.0 010 / 171003.0 -12.2 -1.6
2020-Jan-13 21:00N 78°42' E 010°12'715.3 020 / 181002.8 2.2 -12.5 -1.8
2020-Jan-13 20:30N 78°49' E 010°11'510.3
2020-Jan-13 20:00N 78°54' E 010°24'1010.0 020 / 151002.9 -12.5 -1.8
2020-Jan-13 19:00N 79°00' E 011°06'4 3.6 1002.7 -13.2 -1.6
2020-Jan-13 18:00N 79°00' E 011°25'031.7
2020-Jan-13 18:00N 79°00' E 011°24'1 0.7 360 / 141002.7 -13.5-20.9-1.4
2020-Jan-13 17:00N 79°01' E 011°25'152.6
2020-Jan-13 17:00N 79°00' E 011°24'8 8.3 020 / 101002.6 -13.5 -1.7
2020-Jan-13 16:00N 78°54' E 011°54'6 6.1 170 / 41002.8 -16.5 -1.3
2020-Jan-13 15:00N 79°00' E 011°48'0 0.0 160 / 51002.7 -15.2 -1.6
2020-Jan-13 14:00N 79°00' E 011°48'0 0.0 190 / 71002.7 -15.7 -1.6
2020-Jan-13 13:00N 79°00' E 011°48'3 3.0 180 / 41002.7 -15.5 -1.6
2020-Jan-13 12:00N 78°57' E 011°56'3353.8
2020-Jan-13 12:00N 79°00' E 011°54'3 2.6 130 / 81002.6 5.4 -15.3 -1.3
2020-Jan-13 11:00N 78°57' E 011°57'31585.6
2020-Jan-13 11:00N 79°00' E 011°54'1 1.1 110 / 71002.2 -15.3 -1.1
2020-Jan-13 10:00N 79°00' E 012°00'0 0.0 120 / 71002.1 -15.0 -1.2
2020-Jan-13 09:00N 79°00' E 012°00'4 4.1 200 / 11002.0 5.4 -15.3 -1.4
2020-Jan-13 08:00N 78°56' E 011°56'2159.8
2020-Jan-13 08:00N 78°54' E 011°54'5 4.6 170 / 81001.8 -15.3 -1.3
2020-Jan-13 07:00N 78°54' E 012°18'1 1.6 140 / 101001.8 -15.6 -1.5
2020-Jan-13 06:30N 78°54' E 012°22'0 0.7
2020-Jan-13 06:00N 78°54' E 012°24'0 0.3 120 / 101001.410.8 -16.1 -1.4
2020-Jan-13 05:00N 78°54' E 012°22'056.1
2020-Jan-13 05:00N 78°54' E 012°24'0 0.7 150 / 131001.1 -16.1 -1.4
2020-Jan-13 04:30N 78°54' E 012°22'0 0.3
2020-Jan-13 04:00N 78°54' E 012°22'0428.8
2020-Jan-13 04:00N 78°54' E 012°24'5 9.6 160 / 171001.0 -15.7 -1.2
2020-Jan-13 03:30N 78°56' E 012°03'4 8.0
2020-Jan-13 03:00N 79°00' E 011°54'3 2.9 110 / 111001.2 -15.3 -1.4
2020-Jan-13 02:01N 78°57' E 011°58'3165.0
2020-Jan-13 02:00N 79°00' E 012°00'3 5.8 120 / 111000.9 -14.7 -1.2
2020-Jan-13 01:30N 78°57' E 011°56'3 5.6
2020-Jan-13 01:00N 79°00' E 012°00'3 5.8 120 / 141000.5 -15.2 -1.2
2020-Jan-13 00:30N 78°57' E 011°55'3 5.4
2020-Jan-13 00:00N 79°00' E 011°54'0 0.0 120 / 121000.5 -15.2 -1.5
2020-Jan-12 23:00N 79°00' E 011°54'2 2.3 120 / 131000.6 -15.0 -1.4
2020-Jan-12 22:00N 79°00' E 011°42'0 0.0 140 / 111000.4 -13.8 -1.5
2020-Jan-12 21:00N 79°00' E 011°42'1 1.9 140 / 121000.410.8 -14.0 -1.6
2020-Jan-12 20:30N 78°59' E 011°43'1 1.8
2020-Jan-12 20:00N 79°00' E 011°42'   150 / 121000.3 -14.0 -1.4

Dump ship's entire track history